createdAt,value
2023-02-12T00:01:56.340Z,9.75
2023-02-12T00:04:43.282Z,9.67
2023-02-12T00:07:31.280Z,9.84
2023-02-12T00:10:19.675Z,9.80
2023-02-12T00:13:06.546Z,9.92
2023-02-12T00:15:54.023Z,9.85
2023-02-12T00:18:40.805Z,9.74
2023-02-12T00:21:27.673Z,9.80
2023-02-12T00:24:14.407Z,9.74
2023-02-12T00:27:02.402Z,9.72
2023-02-12T00:29:49.075Z,9.73
2023-02-12T00:32:37.425Z,9.72
2023-02-12T00:35:24.300Z,9.78
2023-02-12T00:38:11.096Z,9.61
2023-02-12T00:40:57.982Z,9.66
2023-02-12T00:43:46.762Z,9.81
2023-02-12T00:46:33.300Z,9.66
2023-02-12T00:49:20.471Z,9.60
2023-02-12T00:52:07.473Z,9.53
2023-02-12T00:54:54.268Z,9.51
2023-02-12T00:57:41.210Z,9.54
2023-02-12T01:00:29.387Z,9.76
2023-02-12T01:03:17.440Z,9.80
2023-02-12T01:06:03.920Z,9.61
2023-02-12T01:08:52.621Z,9.56
2023-02-12T01:11:39.870Z,9.54
2023-02-12T01:14:26.916Z,9.62
2023-02-12T01:17:14.933Z,9.73
2023-02-12T01:20:07.201Z,9.79
2023-02-12T01:22:53.968Z,9.58
2023-02-12T01:25:40.591Z,9.71
2023-02-12T01:28:27.402Z,9.37
2023-02-12T01:31:16.482Z,9.58
2023-02-12T01:34:05.191Z,9.46
2023-02-12T01:36:53.252Z,9.33
2023-02-12T01:39:40.055Z,9.09
2023-02-12T01:42:26.593Z,9.09
2023-02-12T01:45:45.846Z,9.14
2023-02-12T01:48:38.396Z,9.02
2023-02-12T01:51:27.290Z,8.91
2023-02-12T01:54:16.221Z,8.86
2023-02-12T01:57:05.221Z,8.86
2023-02-12T01:59:54.600Z,8.86
2023-02-12T02:02:41.668Z,8.86
2023-02-12T02:05:34.592Z,8.78
2023-02-12T02:08:23.582Z,8.84
2023-02-12T02:11:24.823Z,8.79
2023-02-12T02:14:29.013Z,8.87
2023-02-12T02:17:31.550Z,8.87
2023-02-12T02:20:42.889Z,8.85
2023-02-12T02:23:48.879Z,8.83
2023-02-12T02:27:08.652Z,8.77
2023-02-12T02:30:26.000Z,8.97
2023-02-12T02:33:22.963Z,9.17
2023-02-12T02:36:26.211Z,8.96
2023-02-12T02:39:20.243Z,9.11
2023-02-12T02:42:12.311Z,8.93
2023-02-12T02:45:04.878Z,9.03
2023-02-12T02:47:59.590Z,9.08
2023-02-12T02:50:51.064Z,9.11
2023-02-12T02:53:43.502Z,9.34
2023-02-12T02:56:31.821Z,9.44
2023-02-12T02:59:22.896Z,9.38
2023-02-12T03:02:16.964Z,9.29
2023-02-12T03:05:10.869Z,9.45
2023-02-12T03:08:02.819Z,9.42
2023-02-12T03:10:55.148Z,9.40
2023-02-12T03:13:47.447Z,9.14
2023-02-12T03:16:37.964Z,9.27
2023-02-12T03:19:28.703Z,9.17
2023-02-12T03:22:19.453Z,9.32
2023-02-12T03:25:14.370Z,9.25
2023-02-12T03:28:08.129Z,9.28
2023-02-12T03:31:02.766Z,9.28
2023-02-12T03:34:00.265Z,9.34
2023-02-12T03:36:53.241Z,9.34
2023-02-12T03:39:50.865Z,9.39
2023-02-12T03:42:46.199Z,9.20
2023-02-12T03:45:48.044Z,9.17
2023-02-12T03:48:39.690Z,9.27
2023-02-12T03:51:30.309Z,9.00
2023-02-12T03:54:21.219Z,8.87
2023-02-12T03:57:13.382Z,9.11
2023-02-12T04:00:02.677Z,9.20
2023-02-12T04:03:01.196Z,9.00
2023-02-12T04:05:48.028Z,9.08
2023-02-12T04:08:34.967Z,9.04
2023-02-12T04:11:31.957Z,8.84
2023-02-12T04:14:28.553Z,8.78
2023-02-12T04:17:23.524Z,8.67
2023-02-12T04:20:18.166Z,8.64
2023-02-12T04:23:17.916Z,8.60
2023-02-12T04:26:13.838Z,8.93
2023-02-12T04:29:16.830Z,8.56
2023-02-12T04:32:12.960Z,8.51
2023-02-12T04:35:06.606Z,8.50
2023-02-12T04:37:57.501Z,8.68
2023-02-12T04:40:45.449Z,8.61
2023-02-12T04:43:36.471Z,8.85
2023-02-12T04:46:23.653Z,9.12
2023-02-12T04:49:15.788Z,8.99
2023-02-12T04:52:02.395Z,8.97
2023-02-12T04:54:49.205Z,8.87
2023-02-12T04:57:36.107Z,8.88
2023-02-12T05:00:23.344Z,9.06
2023-02-12T05:03:10.300Z,8.68
2023-02-12T05:06:04.081Z,8.97
2023-02-12T05:08:50.709Z,8.95
2023-02-12T05:11:37.332Z,9.08
2023-02-12T05:14:25.769Z,9.21
2023-02-12T05:17:12.418Z,9.19
2023-02-12T05:19:59.285Z,9.10
2023-02-12T05:22:47.427Z,8.97
2023-02-12T05:25:34.140Z,9.10
2023-02-12T05:28:21.024Z,9.06
2023-02-12T05:31:10.492Z,9.15
2023-02-12T05:33:57.369Z,8.99
2023-02-12T05:36:44.187Z,9.24
2023-02-12T05:39:32.612Z,9.28
2023-02-12T05:42:19.044Z,8.94
2023-02-12T05:45:06.700Z,8.66
2023-02-12T05:47:53.318Z,8.62
2023-02-12T05:50:40.108Z,8.57
2023-02-12T05:53:27.895Z,8.53
2023-02-12T05:56:18.478Z,8.49
2023-02-12T05:59:07.256Z,8.48
2023-02-12T06:01:53.975Z,8.36
2023-02-12T06:04:40.409Z,8.36
2023-02-12T06:07:27.173Z,8.46
2023-02-12T06:10:13.907Z,8.60
2023-02-12T06:13:01.942Z,8.48
2023-02-12T06:15:48.771Z,8.48
2023-02-12T06:18:37.264Z,8.37
2023-02-12T06:21:25.707Z,8.29
2023-02-12T06:24:13.525Z,8.27
2023-02-12T06:27:00.318Z,8.27
2023-02-12T06:29:48.491Z,8.25
2023-02-12T06:32:35.196Z,8.22
2023-02-12T06:35:21.964Z,8.21
2023-02-12T06:38:09.422Z,8.12
2023-02-12T06:40:56.157Z,8.23
2023-02-12T06:43:43.121Z,8.60
2023-02-12T06:46:31.617Z,8.41
2023-02-12T06:49:17.989Z,8.26
2023-02-12T06:52:04.860Z,8.18
2023-02-12T06:54:51.769Z,8.17
2023-02-12T06:57:38.739Z,8.28
2023-02-12T07:00:25.691Z,8.27
2023-02-12T07:03:14.284Z,8.34
2023-02-12T07:06:01.136Z,8.49
2023-02-12T07:08:47.817Z,8.49
2023-02-12T07:11:38.359Z,8.41
2023-02-12T07:14:25.282Z,8.41
2023-02-12T07:17:12.119Z,8.41
2023-02-12T07:20:00.274Z,8.40
2023-02-12T07:22:47.030Z,8.55
2023-02-12T07:25:33.897Z,8.54
2023-02-12T07:28:20.773Z,8.53
2023-02-12T07:31:09.010Z,8.60
2023-02-12T07:33:56.874Z,8.62
2023-02-12T07:36:44.983Z,8.56
2023-02-12T07:39:31.760Z,8.62
2023-02-12T07:42:19.144Z,8.77
2023-02-12T07:45:10.344Z,8.73
2023-02-12T07:47:56.917Z,8.83
2023-02-12T07:50:43.616Z,8.87
2023-02-12T07:53:31.768Z,8.93
2023-02-12T07:56:20.522Z,8.92
2023-02-12T07:59:09.134Z,9.12
2023-02-12T08:01:56.404Z,9.16
2023-02-12T08:04:42.940Z,9.14
2023-02-12T08:07:30.471Z,9.28
2023-02-12T08:10:22.361Z,9.35
2023-02-12T08:13:08.804Z,9.38
2023-02-12T08:16:01.472Z,9.51
2023-02-12T08:18:48.643Z,9.74
2023-02-12T08:21:35.629Z,9.86
2023-02-12T08:24:23.044Z,9.77
2023-02-12T08:27:11.043Z,9.82
2023-02-12T08:29:57.913Z,9.75
2023-02-12T08:32:45.279Z,9.74
2023-02-12T08:35:31.753Z,9.91
2023-02-12T08:38:18.399Z,10.06
2023-02-12T08:41:08.840Z,10.00
2023-02-12T08:43:58.833Z,10.02
2023-02-12T08:46:47.901Z,10.17
2023-02-12T08:49:34.702Z,10.28
2023-02-12T08:52:21.364Z,10.36
2023-02-12T08:55:08.902Z,10.39
2023-02-12T08:57:58.153Z,10.30
2023-02-12T09:00:46.071Z,10.12
2023-02-12T09:03:32.981Z,10.20
2023-02-12T09:06:21.897Z,10.46
2023-02-12T09:09:08.444Z,10.41
2023-02-12T09:11:55.149Z,10.48
2023-02-12T09:14:42.028Z,10.52
2023-02-12T09:17:30.645Z,10.53
2023-02-12T09:20:17.396Z,10.55
2023-02-12T09:23:04.520Z,10.39
2023-02-12T09:25:51.189Z,10.46
2023-02-12T09:28:38.559Z,10.69
2023-02-12T09:31:27.898Z,10.73
2023-02-12T09:34:16.078Z,10.88
2023-02-12T09:37:02.942Z,10.80
2023-02-12T09:39:51.270Z,10.64
2023-02-12T09:42:53.645Z,10.60
2023-02-12T09:45:45.197Z,10.79
2023-02-12T09:48:40.763Z,10.94
2023-02-12T09:51:30.473Z,11.04
2023-02-12T09:54:19.567Z,10.97
2023-02-12T09:57:14.445Z,10.86
2023-02-12T10:00:06.608Z,11.04
2023-02-12T10:02:55.410Z,11.01
2023-02-12T10:05:46.475Z,11.13
2023-02-12T10:08:46.554Z,11.26
2023-02-12T10:11:51.985Z,11.13
2023-02-12T10:14:59.717Z,11.29
2023-02-12T10:17:55.071Z,11.19
2023-02-12T10:20:53.196Z,11.06
2023-02-12T10:24:01.209Z,11.08
2023-02-12T10:26:50.332Z,10.91
2023-02-12T10:29:42.542Z,11.11
2023-02-12T10:32:32.027Z,11.34
2023-02-12T10:35:26.960Z,11.32
2023-02-12T10:38:18.795Z,11.35
2023-02-12T10:41:07.045Z,11.29
2023-02-12T10:43:54.046Z,11.18
2023-02-12T10:46:40.978Z,10.93
2023-02-12T10:49:28.024Z,11.01
2023-02-12T10:52:35.902Z,11.06
2023-02-12T10:55:27.967Z,10.91
2023-02-12T10:58:24.318Z,11.10
2023-02-12T11:01:18.336Z,11.08
2023-02-12T11:04:22.454Z,11.22
2023-02-12T11:07:10.865Z,11.29
2023-02-12T11:09:58.429Z,11.24
2023-02-12T11:12:48.412Z,10.97
2023-02-12T11:15:47.441Z,11.09
2023-02-12T11:18:36.698Z,11.06
2023-02-12T11:21:24.592Z,11.00
2023-02-12T11:24:31.915Z,10.97
2023-02-12T11:27:24.578Z,10.88
2023-02-12T11:30:20.350Z,10.95
2023-02-12T11:33:23.505Z,10.79
2023-02-12T11:36:25.157Z,10.72
2023-02-12T11:39:21.393Z,10.75
2023-02-12T11:42:16.716Z,10.75
2023-02-12T11:45:04.910Z,10.74
2023-02-12T11:47:52.924Z,10.63
2023-02-12T11:50:47.660Z,10.39
2023-02-12T11:53:37.642Z,10.51
2023-02-12T11:56:24.646Z,10.33
2023-02-12T11:59:19.252Z,10.55
2023-02-12T12:02:23.428Z,10.61
2023-02-12T12:05:15.773Z,10.53
2023-02-12T12:08:08.641Z,10.47
2023-02-12T12:10:59.769Z,10.60
2023-02-12T12:13:52.133Z,10.70
2023-02-12T12:17:02.450Z,10.61
2023-02-12T12:19:57.891Z,10.75
2023-02-12T12:22:51.716Z,10.71
2023-02-12T12:25:46.308Z,10.99
2023-02-12T12:28:37.398Z,10.92
2023-02-12T12:31:29.867Z,11.01
2023-02-12T12:34:19.258Z,11.25
2023-02-12T12:37:32.312Z,11.39
2023-02-12T12:40:42.326Z,11.25
2023-02-12T12:43:43.248Z,11.45
2023-02-12T12:46:48.565Z,11.81
2023-02-12T12:49:55.242Z,11.79
2023-02-12T12:52:58.136Z,11.51
2023-02-12T12:56:12.836Z,11.38
2023-02-12T12:59:26.115Z,11.48
2023-02-12T13:02:43.634Z,11.79
2023-02-12T13:05:48.649Z,12.01
2023-02-12T13:08:48.500Z,12.11
2023-02-12T13:11:43.397Z,11.90
2023-02-12T13:14:45.065Z,11.82
2023-02-12T13:17:39.620Z,11.73
2023-02-12T13:20:38.345Z,11.47
2023-02-12T13:23:35.892Z,11.47
2023-02-12T13:26:30.779Z,11.33
2023-02-12T13:29:22.543Z,11.20
2023-02-12T13:32:17.726Z,11.33
2023-02-12T13:35:08.101Z,11.41
2023-02-12T13:37:56.469Z,11.76
2023-02-12T13:40:43.396Z,11.97
2023-02-12T13:43:50.712Z,11.74
2023-02-12T13:46:51.835Z,11.82
2023-02-12T13:49:45.972Z,12.02
2023-02-12T13:52:42.276Z,11.91
2023-02-12T13:55:35.535Z,12.17
2023-02-12T13:58:48.538Z,12.04
2023-02-12T14:01:43.313Z,12.09
2023-02-12T14:04:33.038Z,12.19
2023-02-12T14:07:22.936Z,12.09
2023-02-12T14:10:20.773Z,11.95
2023-02-12T14:13:18.664Z,11.92
2023-02-12T14:16:36.174Z,11.86
2023-02-12T14:19:57.164Z,11.96
2023-02-12T14:23:34.058Z,12.03
2023-02-12T14:26:24.651Z,12.07
2023-02-12T14:29:21.136Z,11.92
2023-02-12T14:32:40.391Z,12.15
2023-02-12T14:35:34.208Z,11.86
2023-02-12T14:39:01.335Z,11.70
2023-02-12T14:41:50.302Z,11.66
2023-02-12T14:44:47.413Z,11.75
2023-02-12T14:47:55.344Z,11.65
2023-02-12T14:50:50.530Z,11.75
2023-02-12T14:53:40.537Z,11.90
2023-02-12T14:56:27.661Z,11.77
2023-02-12T14:59:22.577Z,11.61
2023-02-12T15:02:15.287Z,11.74
2023-02-12T15:05:05.390Z,11.46
2023-02-12T15:07:58.397Z,11.72
2023-02-12T15:10:51.050Z,11.74
2023-02-12T15:13:49.549Z,11.63
2023-02-12T15:16:46.530Z,11.57
2023-02-12T15:19:41.707Z,11.59
2023-02-12T15:22:32.470Z,11.53
2023-02-12T15:25:25.144Z,11.44
2023-02-12T15:28:20.278Z,11.39
2023-02-12T15:31:11.037Z,11.26
2023-02-12T15:34:01.060Z,11.15
2023-02-12T15:36:47.882Z,11.43
2023-02-12T15:39:43.547Z,11.24
2023-02-12T15:42:32.657Z,11.15
2023-02-12T15:45:22.288Z,11.09
2023-02-12T15:48:14.664Z,10.92
2023-02-12T15:51:10.676Z,11.00
2023-02-12T15:53:59.638Z,11.10
2023-02-12T15:56:46.444Z,11.07
2023-02-12T15:59:33.027Z,10.90
2023-02-12T16:02:22.751Z,10.71
2023-02-12T16:05:15.873Z,10.61
2023-02-12T16:08:04.434Z,10.61
2023-02-12T16:10:54.438Z,10.64
2023-02-12T16:13:45.422Z,10.67
2023-02-12T16:16:40.796Z,10.60
2023-02-12T16:19:29.420Z,10.73
2023-02-12T16:22:19.629Z,10.66
2023-02-12T16:25:16.719Z,10.71
2023-02-12T16:28:07.036Z,10.43
2023-02-12T16:30:53.876Z,10.29
2023-02-12T16:33:48.729Z,10.19
2023-02-12T16:36:39.190Z,10.04
2023-02-12T16:40:14.227Z,10.04
2023-02-12T16:43:26.543Z,9.96
2023-02-12T16:46:15.129Z,9.73
2023-02-12T16:49:03.409Z,9.97
2023-02-12T16:51:51.082Z,9.98
2023-02-12T16:54:38.039Z,9.91
2023-02-12T16:57:24.900Z,10.03
2023-02-12T17:00:17.639Z,10.30
2023-02-12T17:03:04.272Z,10.43
2023-02-12T17:05:52.495Z,10.22
2023-02-12T17:08:39.396Z,10.22
2023-02-12T17:11:27.162Z,10.50
2023-02-12T17:14:16.752Z,10.27
2023-02-12T17:17:07.841Z,10.18
2023-02-12T17:19:54.529Z,10.37
2023-02-12T17:22:46.335Z,10.35
2023-02-12T17:25:34.143Z,10.21
2023-02-12T17:28:21.204Z,10.41
2023-02-12T17:31:08.170Z,10.46
2023-02-12T17:33:56.456Z,10.34
2023-02-12T17:36:43.611Z,10.31
2023-02-12T17:39:30.746Z,10.38
2023-02-12T17:42:17.512Z,10.36
2023-02-12T17:45:04.428Z,10.42
2023-02-12T17:47:50.864Z,10.41
2023-02-12T17:50:40.484Z,10.39
2023-02-12T17:53:27.381Z,10.50
2023-02-12T17:56:17.573Z,10.50
2023-02-12T17:59:04.410Z,10.52
2023-02-12T18:01:51.188Z,10.45
2023-02-12T18:04:38.008Z,10.44
2023-02-12T18:07:26.277Z,10.51
2023-02-12T18:10:13.397Z,10.54
2023-02-12T18:13:00.013Z,10.48
2023-02-12T18:15:46.892Z,10.56
2023-02-12T18:18:33.640Z,10.60
2023-02-12T18:21:20.603Z,10.56
2023-02-12T18:24:09.567Z,10.50
2023-02-12T18:26:56.306Z,10.46
2023-02-12T18:29:43.134Z,10.38
2023-02-12T18:32:30.015Z,10.25
2023-02-12T18:35:16.872Z,10.12
2023-02-12T18:38:03.823Z,10.14
2023-02-12T18:40:51.897Z,10.01
2023-02-12T18:43:39.064Z,10.01
2023-02-12T18:46:27.276Z,10.07
2023-02-12T18:49:14.414Z,9.99
2023-02-12T18:52:02.100Z,10.17
2023-02-12T18:54:48.496Z,10.39
2023-02-12T18:57:36.625Z,10.28
2023-02-12T19:00:23.592Z,10.29
2023-02-12T19:03:10.280Z,10.24
2023-02-12T19:06:03.950Z,10.13
2023-02-12T19:08:50.557Z,9.94
2023-02-12T19:11:37.329Z,9.88
2023-02-12T19:14:26.421Z,9.86
2023-02-12T19:17:13.124Z,9.84
2023-02-12T19:19:59.847Z,9.76
2023-02-12T19:22:47.290Z,9.72
2023-02-12T19:25:36.023Z,9.71
2023-02-12T19:28:22.498Z,9.69
2023-02-12T19:31:16.429Z,9.65
2023-02-12T19:34:05.455Z,9.72
2023-02-12T19:36:52.584Z,9.60
2023-02-12T19:39:39.650Z,9.60
2023-02-12T19:42:26.491Z,9.49
2023-02-12T19:45:13.135Z,9.49
2023-02-12T19:48:04.895Z,9.38
2023-02-12T19:50:52.002Z,9.37
2023-02-12T19:53:38.948Z,9.37
2023-02-12T19:56:26.121Z,9.37
2023-02-12T19:59:14.558Z,9.37
2023-02-12T20:02:02.626Z,9.53
2023-02-12T20:04:50.517Z,9.46
2023-02-12T20:07:37.107Z,9.46
2023-02-12T20:10:24.025Z,9.53
2023-02-12T20:13:10.757Z,9.62
2023-02-12T20:15:57.410Z,9.56
2023-02-12T20:18:44.567Z,9.57
2023-02-12T20:21:33.078Z,9.65
2023-02-12T20:24:19.906Z,9.60
2023-02-12T20:27:06.797Z,9.85
2023-02-12T20:29:53.864Z,9.82
2023-02-12T20:32:41.940Z,10.01
2023-02-12T20:35:29.843Z,9.88
2023-02-12T20:38:19.291Z,9.73
2023-02-12T20:41:08.104Z,9.90
2023-02-12T20:43:55.577Z,9.71
2023-02-12T20:46:42.668Z,9.61
2023-02-12T20:49:29.408Z,9.64
2023-02-12T20:52:16.420Z,9.77
2023-02-12T20:55:04.873Z,9.89
2023-02-12T20:57:51.798Z,9.70
2023-02-12T21:00:38.736Z,9.67
2023-02-12T21:06:13.454Z,9.62
2023-02-12T21:09:00.474Z,9.90
2023-02-12T21:11:49.716Z,9.75
2023-02-12T21:14:41.177Z,9.88
2023-02-12T21:17:28.706Z,9.81
2023-02-12T21:20:15.229Z,9.90
2023-02-12T21:23:02.104Z,9.93
2023-02-12T21:25:48.922Z,10.12
2023-02-12T21:28:37.650Z,10.21
2023-02-12T21:31:26.395Z,10.16
2023-02-12T21:34:15.512Z,10.14
2023-02-12T21:37:02.780Z,10.22
2023-02-12T21:39:49.135Z,10.14
2023-02-12T21:42:35.876Z,10.23
2023-02-12T21:45:23.997Z,10.26
2023-02-12T21:48:10.690Z,10.14
2023-02-12T21:50:58.271Z,10.22
2023-02-12T21:53:44.969Z,10.13
2023-02-12T21:56:32.015Z,10.17
2023-02-12T21:59:26.729Z,10.12
2023-02-12T22:02:14.738Z,10.21
2023-02-12T22:05:01.382Z,10.21
2023-02-12T22:07:49.970Z,10.33
2023-02-12T22:10:37.320Z,10.36
2023-02-12T22:13:24.204Z,9.83
2023-02-12T22:16:12.082Z,10.20
2023-02-12T22:19:02.362Z,10.17
2023-02-12T22:21:51.586Z,10.42
2023-02-12T22:24:38.201Z,10.34
2023-02-12T22:27:24.705Z,10.39
2023-02-12T22:30:12.275Z,10.37
2023-02-12T22:32:58.671Z,10.38
2023-02-12T22:35:46.945Z,10.12
2023-02-12T22:38:34.593Z,10.19
2023-02-12T22:41:21.771Z,10.24
2023-02-12T22:44:08.623Z,10.49
2023-02-12T22:46:55.330Z,10.47
2023-02-12T22:49:42.230Z,10.41
2023-02-12T22:52:32.992Z,10.42
2023-02-12T22:55:19.772Z,10.41
2023-02-12T22:58:06.524Z,10.37
2023-02-12T23:00:53.258Z,10.48
2023-02-12T23:03:40.521Z,10.48
2023-02-12T23:06:30.233Z,10.60
2023-02-12T23:09:19.871Z,10.45
2023-02-12T23:12:07.990Z,10.29
2023-02-12T23:14:57.615Z,10.39
2023-02-12T23:17:44.468Z,10.46
2023-02-12T23:20:31.220Z,10.25
2023-02-12T23:23:18.400Z,10.30
2023-02-12T23:26:07.034Z,10.36
2023-02-12T23:28:53.885Z,10.31
2023-02-12T23:31:40.786Z,10.26
2023-02-12T23:34:27.412Z,10.16
2023-02-12T23:37:14.049Z,9.96
2023-02-12T23:40:00.800Z,10.04
2023-02-12T23:42:48.921Z,10.14
2023-02-12T23:45:35.964Z,10.11
2023-02-12T23:48:22.550Z,10.29
2023-02-12T23:51:09.380Z,10.25
2023-02-12T23:53:57.509Z,10.28
2023-02-12T23:56:44.656Z,10.03
2023-02-12T23:59:32.915Z,10.04
